Search flights

Naxos Airport, Naxos (LGNX)

Airport Weather & NOTAM's

METAR for:LGNX (Naxos Arpt, K, GR)
Text:LGNX 231350Z 03013KT CAVOK 27/19 Q1006
Conditions at:1350 UTC 23 Jun 2024
Temperature: 27.0°C ( 81°F)
Dewpoint: 19.0°C ( 66°F) [RH = 62%]
Pressure (altimeter):29.70 inches Hg (1006.0 mb)
Winds:from the NNE (30 degrees) at 15 MPH (13 knots; 6.7 m/s)
Visibility:6 or more sm (10+ km)
Ceiling:ceiling and visibility are OK
Clouds:unknown

Live Departures & Arrivals

There are currently no arrivals or departures for this airport.

Departures History (last 12 months)

Flight No. Dest. Aircraft Date
MSE11LG LGPA Pipistrel... 2024-06-18 02:30:30
MSE4567 LGPA Kodiak 100... 2024-05-15 10:46:05

Arrivals History (last 12 months)

Flight No. Origin Aircraft Date
MSE10LG LGSO Black Squa... 2024-06-18 02:21:49
MSE1423 LGSO Cessna T20... 2024-05-15 10:39:53

Runway Information (Airport elevation: 11ft)

Runway 18 Length 2,943ft Width 91ft Elevation 11ft Surface Concrete Heading 181
Runway 36 Length 2,943ft Width 91ft Elevation 11ft Surface Concrete Heading 1

Airport Frequencies

Type UC Frequency 124.750 Mhz

Airport Navaids

No navaids to display.